Saint-Philippe-De-Neri, Canada
Current Conditions -  °F | °C
As of 7:53 PM on Saturday 22 Nov 2014 (Local Time) from KFVE Reporting Station
Light Snow Light Snow  
Wind Chill: 16°   Ceiling: 3800
Heat Index: 26°   Visibility: 6mi
Dew Point: 23°   Wind: 12mph
Humidity: 88%   Direction: 250°WSW
Pressure: 29.73"   Gusts: NA
Location:  47.45°N, 69.88°W
Report Text: KFVE 230053Z AUTO 25010KT 6SM -SN BR FEW018 BKN038 OVC065 M03/M05 A2973 RMK AO2 SLP085 P0000 T10331050
Loading
Personal Weather Stations






























Interactive Weather Map New forecast layout! Learn more

10-Day Weather Forecast

Advertisements
Track Severe Weather on mobile